Time,TemperatureF,DewpointF,PressureIn,WindDirection,WindDirectionDegrees,WindSpeedMPH,WindSpeedGustMPH,Humidity,HourlyPrecipIn,Conditions,Clouds,dailyrainin,SoftwareType,DateUTC
2013-02-26 00:00:00,74.1,67.9,29.79,West,270,0.9,2.0,81,0.00,,---,0.00,VWS V14.01,2013-02-25 13:00:00,
2013-02-26 00:05:00,73.9,67.8,29.79,NNW,338,4.3,4.3,81,0.00,,---,0.00,VWS V14.01,2013-02-25 13:05:00,
2013-02-26 00:10:00,73.9,67.8,29.79,WNW,292,4.3,4.3,81,0.00,,---,0.00,VWS V14.01,2013-02-25 13:10:00,
2013-02-26 00:15:00,73.9,68.1,29.79,NNE,22,4.0,4.0,82,0.00,,---,0.00,VWS V14.01,2013-02-25 13:15:00,
2013-02-26 00:20:00,73.9,67.8,29.79,NNE,22,2.0,2.0,81,0.00,,---,0.00,VWS V14.01,2013-02-25 13:20:00,
2013-02-26 00:25:00,73.8,67.9,29.79,North,0,4.3,4.3,82,0.00,,---,0.00,VWS V14.01,2013-02-25 13:25:00,
2013-02-26 00:30:00,73.8,67.6,29.79,NW,315,2.5,2.9,81,0.00,,---,0.00,VWS V14.01,2013-02-25 13:30:00,
2013-02-26 00:35:00,73.8,67.9,29.79,NW,315,4.7,4.7,82,0.00,,---,0.00,VWS V14.01,2013-02-25 13:35:00,
2013-02-26 00:40:00,73.8,67.9,29.79,North,0,3.6,3.6,82,0.00,,---,0.00,VWS V14.01,2013-02-25 13:40:00,
2013-02-26 00:45:00,73.8,67.9,29.79,North,0,3.6,3.6,82,0.00,,---,0.00,VWS V14.01,2013-02-25 13:45:00,
2013-02-26 00:50:00,73.8,67.6,29.79,NE,45,3.1,5.4,81,0.00,,---,0.00,VWS V14.01,2013-02-25 13:50:00,
2013-02-26 00:55:00,73.8,67.6,29.79,ENE,68,9.8,9.8,81,0.00,,---,0.00,VWS V14.01,2013-02-25 13:55:00,
2013-02-26 01:00:00,73.8,67.6,29.79,ENE,68,1.6,1.6,81,0.00,,---,0.00,VWS V14.01,2013-02-25 14:00:00,
2013-02-26 01:05:00,73.8,67.6,29.79,NW,315,2.7,2.7,81,0.00,,---,0.00,VWS V14.01,2013-02-25 14:05:00,
2013-02-26 01:10:00,73.6,67.4,29.79,NNW,338,1.3,6.3,81,0.00,,---,0.00,VWS V14.01,2013-02-25 14:10:00,
2013-02-26 01:15:00,73.6,67.4,29.76,East,90,8.5,8.5,81,0.00,,---,0.00,VWS V14.01,2013-02-25 14:15:00,
2013-02-26 01:20:00,73.6,67.4,29.76,WSW,248,2.5,2.5,81,0.00,,---,0.00,VWS V14.01,2013-02-25 14:20:00,
2013-02-26 01:25:00,73.6,67.4,29.76,NE,45,2.0,2.0,81,0.00,,---,0.00,VWS V14.01,2013-02-25 14:25:00,
2013-02-26 01:30:00,73.6,67.4,29.76,NW,315,3.1,6.3,81,0.00,,---,0.00,VWS V14.01,2013-02-25 14:30:00,
2013-02-26 01:35:00,73.4,67.2,29.76,SE,135,3.4,3.4,81,0.00,,---,0.00,VWS V14.01,2013-02-25 14:35:00,
2013-02-26 01:40:00,73.4,67.2,29.76,East,90,0.9,0.9,81,0.00,,---,0.00,VWS V14.01,2013-02-25 14:40:00,
2013-02-26 01:45:00,73.4,67.2,29.76,SSE,158,5.6,5.6,81,0.00,,---,0.00,VWS V14.01,2013-02-25 14:45:00,
2013-02-26 01:50:00,73.4,67.2,29.76,NNW,338,1.3,1.6,81,0.00,,---,0.00,VWS V14.01,2013-02-25 14:50:00,
2013-02-26 01:55:00,73.4,67.2,29.76,North,0,2.9,2.9,81,0.00,,---,0.00,VWS V14.01,2013-02-25 14:55:00,
2013-02-26 02:00:00,73.2,67.4,29.76,NW,315,2.9,2.9,82,0.00,,---,0.00,VWS V14.01,2013-02-25 15:00:00,
2013-02-26 02:05:00,73.2,67.4,29.76,NNW,338,4.0,4.0,82,0.00,,---,0.00,VWS V14.01,2013-02-25 15:05:00,
2013-02-26 02:10:00,73.0,67.2,29.76,East,90,3.8,3.8,82,0.00,,---,0.00,VWS V14.01,2013-02-25 15:10:00,
2013-02-26 02:15:00,73.0,67.2,29.76,North,0,2.5,2.5,82,0.00,,---,0.00,VWS V14.01,2013-02-25 15:15:00,
2013-02-26 02:20:00,73.0,67.2,29.76,North,0,2.9,2.9,82,0.00,,---,0.00,VWS V14.01,2013-02-25 15:20:00,
2013-02-26 02:25:00,72.9,67.1,29.76,NNW,338,2.5,2.5,82,0.00,,---,0.00,VWS V14.01,2013-02-25 15:25:00,
2013-02-26 02:30:00,72.9,67.1,29.76,South,180,0.0,0.0,82,0.00,,---,0.00,VWS V14.01,2013-02-25 15:30:00,
2013-02-26 02:35:00,72.7,66.9,29.76,SSE,158,1.6,1.6,82,0.00,,---,0.00,VWS V14.01,2013-02-25 15:35:00,
2013-02-26 02:40:00,72.7,66.9,29.76,NNW,338,1.3,1.3,82,0.00,,---,0.00,VWS V14.01,2013-02-25 15:40:00,
2013-02-26 02:45:00,72.5,66.7,29.76,ESE,112,0.0,2.5,82,0.00,,---,0.00,VWS V14.01,2013-02-25 15:45:00,
2013-02-26 02:50:00,72.5,66.7,29.76,NW,315,4.9,4.9,82,0.00,,---,0.00,VWS V14.01,2013-02-25 15:50:00,
2013-02-26 02:55:00,72.3,66.5,29.76,ENE,68,2.7,2.7,82,0.00,,---,0.00,VWS V14.01,2013-02-25 15:55:00,
2013-02-26 03:00:00,72.3,66.9,29.76,ENE,68,1.1,2.9,83,0.00,,---,0.00,VWS V14.01,2013-02-25 16:00:00,
2013-02-26 03:05:00,72.1,66.7,29.76,NNE,22,2.7,2.9,83,0.00,,---,0.00,VWS V14.01,2013-02-25 16:05:00,
2013-02-26 03:10:00,72.1,66.7,29.76,ENE,68,0.0,4.7,83,0.00,,---,0.00,VWS V14.01,2013-02-25 16:10:00,
2013-02-26 03:15:00,72.1,66.7,29.76,ESE,112,3.1,4.3,83,0.00,,---,0.00,VWS V14.01,2013-02-25 16:15:00,
2013-02-26 03:20:00,72.1,66.7,29.76,East,90,2.5,2.5,83,0.00,,---,0.00,VWS V14.01,2013-02-25 16:20:00,
2013-02-26 03:25:00,72.0,66.5,29.76,NW,315,7.2,7.2,83,0.00,,---,0.00,VWS V14.01,2013-02-25 16:25:00,
2013-02-26 03:30:00,72.0,66.5,29.76,NNW,338,1.3,1.3,83,0.00,,---,0.00,VWS V14.01,2013-02-25 16:30:00,
2013-02-26 03:35:00,72.0,66.5,29.76,NE,45,2.0,2.0,83,0.00,,---,0.00,VWS V14.01,2013-02-25 16:35:00,
2013-02-26 03:40:00,71.8,66.7,29.76,NE,45,4.7,4.7,84,0.00,,---,0.00,VWS V14.01,2013-02-25 16:40:00,
2013-02-26 03:45:00,71.8,66.7,29.76,ESE,112,0.9,0.9,84,0.00,,---,0.00,VWS V14.01,2013-02-25 16:45:00,
2013-02-26 03:50:00,71.6,66.5,29.76,South,180,1.1,1.1,84,0.00,,---,0.00,VWS V14.01,2013-02-25 16:50:00,
2013-02-26 03:55:00,71.6,66.5,29.76,East,90,2.0,2.0,84,0.00,,---,0.00,VWS V14.01,2013-02-25 16:55:00,
2013-02-26 04:00:00,71.4,66.7,29.76,NW,315,1.1,1.1,85,0.00,,---,0.00,VWS V14.01,2013-02-25 17:00:00,
2013-02-26 04:05:00,71.4,66.7,29.76,NW,315,1.3,1.3,85,0.00,,---,0.00,VWS V14.01,2013-02-25 17:05:00,
2013-02-26 04:10:00,71.4,66.7,29.74,NNE,22,0.0,0.0,85,0.00,,---,0.00,VWS V14.01,2013-02-25 17:10:00,
2013-02-26 04:15:00,71.4,66.7,29.74,SW,225,0.0,4.3,85,0.00,,---,0.00,VWS V14.01,2013-02-25 17:15:00,
2013-02-26 04:20:00,71.2,66.5,29.74,WNW,292,2.9,2.9,85,0.00,,---,0.00,VWS V14.01,2013-02-25 17:20:00,
2013-02-26 04:25:00,71.2,66.5,29.76,NW,315,0.9,0.9,85,0.00,,---,0.00,VWS V14.01,2013-02-25 17:25:00,
2013-02-26 04:30:00,71.2,66.5,29.76,SW,225,0.0,0.0,85,0.00,,---,0.00,VWS V14.01,2013-02-25 17:30:00,
2013-02-26 04:35:00,71.2,66.5,29.76,NE,45,0.0,0.0,85,0.00,,---,0.00,VWS V14.01,2013-02-25 17:35:00,
2013-02-26 04:40:00,71.1,66.7,29.76,SE,135,6.5,6.5,86,0.00,,---,0.00,VWS V14.01,2013-02-25 17:40:00,
2013-02-26 04:45:00,71.1,66.7,29.76,West,270,1.1,1.3,86,0.00,,---,0.00,VWS V14.01,2013-02-25 17:45:00,
2013-02-26 04:50:00,71.1,66.7,29.76,NNW,338,0.0,4.9,86,0.00,,---,0.00,VWS V14.01,2013-02-25 17:50:00,
2013-02-26 04:55:00,70.9,66.8,29.76,NE,45,2.9,2.9,87,0.00,,---,0.00,VWS V14.01,2013-02-25 17:55:00,
2013-02-26 05:00:00,70.9,66.8,29.76,East,90,0.9,1.3,87,0.00,,---,0.00,VWS V14.01,2013-02-25 18:00:00,
2013-02-26 05:05:00,70.7,66.7,29.76,West,270,1.6,1.6,87,0.00,,---,0.00,VWS V14.01,2013-02-25 18:05:00,
2013-02-26 05:10:00,70.7,66.7,29.76,NE,45,2.5,2.5,87,0.00,,---,0.00,VWS V14.01,2013-02-25 18:10:00,
2013-02-26 05:15:00,70.7,66.7,29.76,NE,45,0.9,2.5,87,0.00,,---,0.00,VWS V14.01,2013-02-25 18:15:00,
2013-02-26 05:20:00,70.7,66.7,29.76,NE,45,0.9,0.9,87,0.00,,---,0.00,VWS V14.01,2013-02-25 18:20:00,
2013-02-26 05:25:00,70.5,66.5,29.76,NNW,338,0.0,0.0,87,0.00,,---,0.00,VWS V14.01,2013-02-25 18:25:00,
2013-02-26 05:30:00,70.5,66.8,29.76,East,90,0.0,0.0,88,0.00,,---,0.00,VWS V14.01,2013-02-25 18:30:00,
2013-02-26 05:35:00,70.5,66.8,29.76,ENE,68,2.0,2.0,88,0.00,,---,0.00,VWS V14.01,2013-02-25 18:35:00,
2013-02-26 05:40:00,70.5,66.8,29.76,SSW,202,1.6,1.6,88,0.00,,---,0.00,VWS V14.01,2013-02-25 18:40:00,
2013-02-26 05:45:00,70.3,66.6,29.76,WNW,292,6.3,6.3,88,0.00,,---,0.00,VWS V14.01,2013-02-25 18:45:00,
2013-02-26 05:50:00,70.3,66.9,29.76,WSW,248,2.2,2.2,89,0.00,,---,0.00,VWS V14.01,2013-02-25 18:50:00,
2013-02-26 05:55:00,70.3,66.6,29.76,East,90,2.0,4.3,88,0.00,,---,0.00,VWS V14.01,2013-02-25 18:55:00,
2013-02-26 06:00:00,70.3,66.6,29.76,NE,45,3.4,3.4,88,0.00,,---,0.00,VWS V14.01,2013-02-25 19:00:00,
2013-02-26 06:05:00,70.2,66.8,29.76,SSW,202,0.0,3.8,89,0.00,,---,0.00,VWS V14.01,2013-02-25 19:05:00,
2013-02-26 06:10:00,70.2,66.8,29.76,NW,315,1.3,3.6,89,0.00,,---,0.00,VWS V14.01,2013-02-25 19:10:00,
2013-02-26 06:15:00,70.2,66.8,29.76,NE,45,3.1,3.1,89,0.00,,---,0.00,VWS V14.01,2013-02-25 19:15:00,
2013-02-26 06:20:00,70.2,66.8,29.76,SW,225,1.6,2.0,89,0.00,,---,0.00,VWS V14.01,2013-02-25 19:20:00,
2013-02-26 06:25:00,70.2,66.8,29.76,NE,45,4.3,4.3,89,0.00,,---,0.00,VWS V14.01,2013-02-25 19:25:00,
2013-02-26 06:30:00,70.2,66.8,29.76,North,0,1.3,1.3,89,0.00,,---,0.00,VWS V14.01,2013-02-25 19:30:00,
2013-02-26 06:35:00,70.2,66.8,29.76,SW,225,0.0,0.0,89,0.00,,---,0.00,VWS V14.01,2013-02-25 19:35:00,
2013-02-26 06:40:00,70.2,66.8,29.76,NW,315,0.0,0.0,89,0.00,,---,0.00,VWS V14.01,2013-02-25 19:40:00,
2013-02-26 06:45:00,70.2,66.8,29.76,NE,45,1.3,1.3,89,0.00,,---,0.00,VWS V14.01,2013-02-25 19:45:00,
2013-02-26 06:50:00,70.2,66.8,29.76,SE,135,1.3,3.4,89,0.00,,---,0.00,VWS V14.01,2013-02-25 19:50:00,
2013-02-26 06:55:00,70.2,66.8,29.76,South,180,1.3,1.3,89,0.00,,---,0.00,VWS V14.01,2013-02-25 19:55:00,
2013-02-26 07:00:00,70.2,66.8,29.76,NW,315,1.3,1.6,89,0.00,,---,0.00,VWS V14.01,2013-02-25 20:00:00,
2013-02-26 07:05:00,70.2,66.8,29.76,NW,315,2.2,2.2,89,0.00,,---,0.00,VWS V14.01,2013-02-25 20:05:00,
2013-02-26 07:10:00,70.2,66.8,29.79,SE,135,0.0,0.9,89,0.00,,---,0.00,VWS V14.01,2013-02-25 20:10:00,
2013-02-26 07:15:00,70.2,66.8,29.79,NW,315,2.5,2.5,89,0.00,,---,0.00,VWS V14.01,2013-02-25 20:15:00,
2013-02-26 07:20:00,70.3,67.3,29.79,East,90,1.1,1.1,90,0.00,,---,0.00,VWS V14.01,2013-02-25 20:20:00,
2013-02-26 07:25:00,70.3,67.3,29.79,North,0,0.9,1.6,90,0.00,,---,0.00,VWS V14.01,2013-02-25 20:25:00,
2013-02-26 07:30:00,70.3,67.3,29.79,ENE,68,4.3,4.3,90,0.00,,---,0.00,VWS V14.01,2013-02-25 20:30:00,
2013-02-26 07:35:00,70.3,67.3,29.79,SSE,158,0.0,1.1,90,0.00,,---,0.00,VWS V14.01,2013-02-25 20:35:00,
2013-02-26 07:40:00,70.5,67.4,29.79,North,0,1.3,1.3,90,0.00,,---,0.00,VWS V14.01,2013-02-25 20:40:00,
2013-02-26 07:45:00,70.5,67.8,29.79,NW,315,0.9,3.1,91,0.00,,---,0.00,VWS V14.01,2013-02-25 20:45:00,
2013-02-26 07:50:00,70.5,67.8,29.79,East,90,2.7,2.7,91,0.00,,---,0.00,VWS V14.01,2013-02-25 20:50:00,
2013-02-26 07:55:00,70.7,67.9,29.79,SSE,158,0.0,2.2,91,0.00,,---,0.00,VWS V14.01,2013-02-25 20:55:00,
2013-02-26 08:00:00,70.7,67.9,29.79,NE,45,2.5,2.5,91,0.00,,---,0.00,VWS V14.01,2013-02-25 21:00:00,
2013-02-26 08:05:00,70.9,68.1,29.79,ESE,112,2.9,2.9,91,0.00,,---,0.00,VWS V14.01,2013-02-25 21:05:00,
2013-02-26 08:10:00,71.1,68.3,29.79,NW,315,0.0,1.6,91,0.00,,---,0.00,VWS V14.01,2013-02-25 21:10:00,
2013-02-26 08:15:00,71.2,68.5,29.79,WSW,248,2.7,2.7,91,0.00,,---,0.00,VWS V14.01,2013-02-25 21:15:00,
2013-02-26 08:20:00,71.4,68.3,29.79,SW,225,2.0,2.0,90,0.00,,---,0.00,VWS V14.01,2013-02-25 21:20:00,
2013-02-26 08:25:00,71.4,68.3,29.79,East,90,1.3,3.1,90,0.00,,---,0.00,VWS V14.01,2013-02-25 21:25:00,
2013-02-26 08:30:00,71.8,68.7,29.79,ENE,68,2.9,2.9,90,0.00,,---,0.00,VWS V14.01,2013-02-25 21:30:00,
2013-02-26 08:35:00,71.8,68.7,29.79,SE,135,2.0,2.0,90,0.00,,---,0.00,VWS V14.01,2013-02-25 21:35:00,
2013-02-26 08:40:00,72.0,68.6,29.79,NNW,338,4.7,4.7,89,0.00,,---,0.00,VWS V14.01,2013-02-25 21:40:00,
2013-02-26 08:45:00,72.1,68.7,29.79,North,0,4.0,4.0,89,0.00,,---,0.00,VWS V14.01,2013-02-25 21:45:00,
2013-02-26 08:50:00,72.3,68.9,29.79,SW,225,1.6,1.6,89,0.00,,---,0.00,VWS V14.01,2013-02-25 21:50:00,
2013-02-26 08:55:00,72.3,68.9,29.79,ENE,68,1.6,1.6,89,0.00,,---,0.00,VWS V14.01,2013-02-25 21:55:00,
2013-02-26 09:00:00,72.5,69.1,29.79,SE,135,0.9,2.0,89,0.00,,---,0.00,VWS V14.01,2013-02-25 22:00:00,
2013-02-26 09:25:00,73.4,69.3,29.79,North,0,4.3,4.3,87,0.00,,---,0.00,VWS V14.01,2013-02-25 22:25:00,
2013-02-26 09:30:00,73.6,69.1,29.79,NNW,338,2.9,2.9,86,0.00,,---,0.00,VWS V14.01,2013-02-25 22:30:00,
2013-02-26 09:35:00,73.8,69.3,29.79,ENE,68,7.2,7.2,86,0.00,,---,0.00,VWS V14.01,2013-02-25 22:35:00,
2013-02-26 09:40:00,74.1,69.3,29.79,NW,315,5.4,5.4,85,0.00,,---,0.00,VWS V14.01,2013-02-25 22:40:00,
2013-02-26 09:45:00,74.5,69.3,29.79,ENE,68,2.0,2.0,84,0.00,,---,0.00,VWS V14.01,2013-02-25 22:45:00,
2013-02-26 09:50:00,74.7,69.2,29.79,South,180,3.1,3.1,83,0.00,,---,0.00,VWS V14.01,2013-02-25 22:50:00,
2013-02-26 09:55:00,75.0,69.5,29.79,NW,315,3.8,3.8,83,0.00,,---,0.00,VWS V14.01,2013-02-25 22:55:00,
2013-02-26 10:00:00,75.2,69.3,29.79,WSW,248,2.5,2.5,82,0.00,,---,0.00,VWS V14.01,2013-02-25 23:00:00,
2013-02-26 10:05:00,75.6,69.7,29.79,SE,135,6.3,6.3,82,0.00,,---,0.00,VWS V14.01,2013-02-25 23:05:00,
2013-02-26 10:10:00,75.7,69.1,29.79,NE,45,2.9,2.9,80,0.00,,---,0.00,VWS V14.01,2013-02-25 23:10:00,
2013-02-26 10:15:00,75.9,69.3,29.79,North,0,2.7,2.7,80,0.00,,---,0.00,VWS V14.01,2013-02-25 23:15:00,
2013-02-26 10:20:00,76.3,69.3,29.79,NE,45,6.3,6.3,79,0.00,,---,0.00,VWS V14.01,2013-02-25 23:20:00,
2013-02-26 10:25:00,76.5,69.8,29.79,ESE,112,1.3,2.0,80,0.00,,---,0.00,VWS V14.01,2013-02-25 23:25:00,
2013-02-26 10:30:00,76.8,69.8,29.79,SE,135,0.0,0.0,79,0.00,,---,0.00,VWS V14.01,2013-02-25 23:30:00,
2013-02-26 10:35:00,77.2,69.8,29.79,NNE,22,2.7,2.7,78,0.00,,---,0.00,VWS V14.01,2013-02-25 23:35:00,
2013-02-26 10:40:00,77.5,70.1,29.79,NE,45,1.3,1.3,78,0.00,,---,0.00,VWS V14.01,2013-02-25 23:40:00,
2013-02-26 10:45:00,77.7,69.9,29.79,ESE,112,3.8,3.8,77,0.00,,---,0.00,VWS V14.01,2013-02-25 23:45:00,
2013-02-26 10:50:00,77.5,69.8,29.79,ESE,112,2.5,2.5,77,0.00,,---,0.00,VWS V14.01,2013-02-25 23:50:00,
2013-02-26 10:55:00,77.5,70.1,29.79,ESE,112,2.2,2.2,78,0.00,,---,0.00,VWS V14.01,2013-02-25 23:55:00,
2013-02-26 11:00:00,78.3,70.8,29.79,North,0,2.9,2.9,78,0.00,,---,0.00,VWS V14.01,2013-02-26 00:00:00,
2013-02-26 11:05:00,78.8,71.0,29.79,East,90,1.1,1.3,77,0.00,,---,0.00,VWS V14.01,2013-02-26 00:05:00,
2013-02-26 11:10:00,79.0,70.4,29.79,ENE,68,3.1,3.1,75,0.00,,---,0.00,VWS V14.01,2013-02-26 00:10:00,
2013-02-26 11:15:00,78.4,70.2,29.79,SE,135,2.5,2.5,76,0.00,,---,0.00,VWS V14.01,2013-02-26 00:15:00,
2013-02-26 11:20:00,78.4,70.2,29.79,South,180,1.6,1.6,76,0.00,,---,0.00,VWS V14.01,2013-02-26 00:20:00,
2013-02-26 11:25:00,78.1,69.9,29.79,SSE,158,2.7,2.7,76,0.00,,---,0.00,VWS V14.01,2013-02-26 00:25:00,
2013-02-26 11:30:00,77.9,69.7,29.79,ESE,112,1.3,1.3,76,0.00,,---,0.00,VWS V14.01,2013-02-26 00:30:00,
2013-02-26 11:35:00,77.5,69.4,29.79,SE,135,0.0,0.0,76,0.00,,---,0.00,VWS V14.01,2013-02-26 00:35:00,
2013-02-26 11:40:00,77.9,70.1,29.79,South,180,1.6,2.7,77,0.00,,---,0.00,VWS V14.01,2013-02-26 00:40:00,
2013-02-26 11:45:00,78.1,69.9,29.79,SSE,158,1.6,1.6,76,0.00,,---,0.00,VWS V14.01,2013-02-26 00:45:00,
2013-02-26 11:50:00,77.4,69.2,29.79,ENE,68,2.5,2.5,76,0.00,,---,0.00,VWS V14.01,2013-02-26 00:50:00,
2013-02-26 11:55:00,77.0,68.9,29.79,ENE,68,1.3,1.3,76,0.00,,---,0.00,VWS V14.01,2013-02-26 00:55:00,
2013-02-26 12:00:00,77.0,68.9,29.79,SSW,202,1.3,1.3,76,0.00,,---,0.00,VWS V14.01,2013-02-26 01:00:00,
2013-02-26 12:05:00,77.0,69.2,29.79,NE,45,1.6,1.6,77,0.00,,---,0.00,VWS V14.01,2013-02-26 01:05:00,
2013-02-26 12:10:00,77.7,69.6,29.79,NW,315,0.0,2.0,76,0.00,,---,0.00,VWS V14.01,2013-02-26 01:10:00,
2013-02-26 12:15:00,78.4,70.2,29.79,ESE,112,1.3,3.1,76,0.00,,---,0.00,VWS V14.01,2013-02-26 01:15:00,
2013-02-26 12:20:00,78.8,70.2,29.79,WNW,292,2.2,2.2,75,0.00,,---,0.00,VWS V14.01,2013-02-26 01:20:00,
2013-02-26 12:25:00,79.0,70.0,29.79,NE,45,4.0,4.0,74,0.00,,---,0.00,VWS V14.01,2013-02-26 01:25:00,
2013-02-26 12:30:00,79.3,70.3,29.79,NE,45,4.9,4.9,74,0.00,,---,0.00,VWS V14.01,2013-02-26 01:30:00,
2013-02-26 12:35:00,80.1,70.6,29.79,NE,45,1.1,1.6,73,0.00,,---,0.00,VWS V14.01,2013-02-26 01:35:00,
2013-02-26 12:40:00,80.4,70.6,29.79,NW,315,0.0,0.0,72,0.00,,---,0.00,VWS V14.01,2013-02-26 01:40:00,
2013-02-26 12:45:00,80.8,69.7,29.79,NNW,338,3.6,3.6,69,0.00,,---,0.00,VWS V14.01,2013-02-26 01:45:00,
2013-02-26 12:50:00,81.1,70.4,29.79,ENE,68,2.0,2.0,70,0.00,,---,0.00,VWS V14.01,2013-02-26 01:50:00,
2013-02-26 12:55:00,81.1,69.6,29.79,NE,45,1.6,1.6,68,0.00,,---,0.00,VWS V14.01,2013-02-26 01:55:00,
2013-02-26 13:00:00,80.8,69.2,29.79,SSW,202,2.9,2.9,68,0.00,,---,0.00,VWS V14.01,2013-02-26 02:00:00,
2013-02-26 13:05:00,80.4,68.9,29.79,SW,225,1.3,4.7,68,0.00,,---,0.00,VWS V14.01,2013-02-26 02:05:00,
2013-02-26 13:10:00,80.1,69.0,29.79,SE,135,3.4,3.4,69,0.00,,---,0.00,VWS V14.01,2013-02-26 02:10:00,
2013-02-26 13:15:00,80.1,69.0,29.79,ENE,68,0.0,0.9,69,0.00,,---,0.00,VWS V14.01,2013-02-26 02:15:00,
2013-02-26 13:20:00,79.7,68.6,29.79,NNE,22,0.0,0.0,69,0.00,,---,0.00,VWS V14.01,2013-02-26 02:20:00,
2013-02-26 13:25:00,79.5,68.9,29.79,East,90,1.6,1.6,70,0.00,,---,0.00,VWS V14.01,2013-02-26 02:25:00,
2013-02-26 13:30:00,79.7,69.1,29.79,East,90,4.0,4.0,70,0.00,,---,0.00,VWS V14.01,2013-02-26 02:30:00,
2013-02-26 13:35:00,79.7,69.1,29.79,North,0,2.0,4.5,70,0.00,,---,0.00,VWS V14.01,2013-02-26 02:35:00,
2013-02-26 13:40:00,79.5,69.3,29.79,East,90,3.1,4.9,71,0.00,,---,0.00,VWS V14.01,2013-02-26 02:40:00,
2013-02-26 13:45:00,79.5,69.7,29.76,NNW,338,2.5,2.5,72,0.00,,---,0.00,VWS V14.01,2013-02-26 02:45:00,
2013-02-26 13:50:00,79.7,69.9,29.76,NNE,22,2.2,3.1,72,0.00,,---,0.00,VWS V14.01,2013-02-26 02:50:00,
2013-02-26 13:55:00,80.1,70.2,29.76,North,0,1.1,2.5,72,0.00,,---,0.00,VWS V14.01,2013-02-26 02:55:00,
2013-02-26 14:00:00,80.1,70.6,29.76,ESE,112,1.6,2.9,73,0.00,,---,0.00,VWS V14.01,2013-02-26 03:00:00,
2013-02-26 14:05:00,80.1,70.6,29.76,East,90,2.2,2.2,73,0.00,,---,0.00,VWS V14.01,2013-02-26 03:05:00,
2013-02-26 14:10:00,79.7,69.9,29.76,NNW,338,2.9,3.1,72,0.00,,---,0.00,VWS V14.01,2013-02-26 03:10:00,
2013-02-26 14:15:00,79.5,69.3,29.76,SE,135,1.3,1.3,71,0.00,,---,0.00,VWS V14.01,2013-02-26 03:15:00,
2013-02-26 14:20:00,80.2,70.4,29.76,ENE,68,3.1,3.1,72,0.00,,---,0.00,VWS V14.01,2013-02-26 03:20:00,
2013-02-26 14:25:00,80.4,69.3,29.76,NW,315,2.9,2.9,69,0.00,,---,0.00,VWS V14.01,2013-02-26 03:25:00,
2013-02-26 14:30:00,80.8,69.7,29.76,SE,135,2.5,3.4,69,0.00,,---,0.00,VWS V14.01,2013-02-26 03:30:00,
2013-02-26 14:35:00,81.1,70.0,29.76,North,0,2.9,2.9,69,0.00,,---,0.00,VWS V14.01,2013-02-26 03:35:00,
2013-02-26 14:40:00,80.8,69.2,29.76,NW,315,2.9,2.9,68,0.00,,---,0.00,VWS V14.01,2013-02-26 03:40:00,
2013-02-26 14:45:00,80.4,69.8,29.76,SE,135,2.0,2.0,70,0.00,,---,0.00,VWS V14.01,2013-02-26 03:45:00,
2013-02-26 14:50:00,80.1,69.0,29.76,East,90,1.3,1.3,69,0.00,,---,0.00,VWS V14.01,2013-02-26 03:50:00,
2013-02-26 14:55:00,79.7,69.1,29.76,NW,315,0.0,0.0,70,0.00,,---,0.00,VWS V14.01,2013-02-26 03:55:00,
2013-02-26 15:00:00,79.3,69.9,29.74,SSE,158,2.5,2.5,73,0.00,,---,0.00,VWS V14.01,2013-02-26 04:00:00,
2013-02-26 15:05:00,79.2,69.8,29.74,NE,45,2.0,2.0,73,0.00,,---,0.00,VWS V14.01,2013-02-26 04:05:00,
2013-02-26 15:10:00,78.6,69.2,29.74,NW,315,1.6,1.6,73,0.00,,---,0.00,VWS V14.01,2013-02-26 04:10:00,
2013-02-26 15:15:00,78.8,69.4,29.74,East,90,1.3,1.3,73,0.00,,---,0.00,VWS V14.01,2013-02-26 04:15:00,
2013-02-26 15:20:00,78.6,69.7,29.74,NNE,22,2.2,2.2,74,0.00,,---,0.00,VWS V14.01,2013-02-26 04:20:00,
2013-02-26 15:25:00,78.6,69.7,29.74,NNW,338,3.1,3.1,74,0.00,,---,0.00,VWS V14.01,2013-02-26 04:25:00,
2013-02-26 15:30:00,78.6,69.7,29.74,NNE,22,0.0,0.0,74,0.00,,---,0.00,VWS V14.01,2013-02-26 04:30:00,
2013-02-26 15:35:00,78.4,69.5,29.74,North,0,0.9,3.1,74,0.00,,---,0.00,VWS V14.01,2013-02-26 04:35:00,
2013-02-26 15:40:00,78.8,69.8,29.74,West,270,3.1,3.1,74,0.00,,---,0.00,VWS V14.01,2013-02-26 04:40:00,
2013-02-26 15:45:00,78.4,69.1,29.74,NW,315,2.0,3.4,73,0.00,,---,0.00,VWS V14.01,2013-02-26 04:45:00,
2013-02-26 15:50:00,78.6,69.7,29.74,SSE,158,2.5,2.5,74,0.00,,---,0.00,VWS V14.01,2013-02-26 04:50:00,
2013-02-26 15:55:00,78.6,69.7,29.74,East,90,2.0,4.0,74,0.00,,---,0.00,VWS V14.01,2013-02-26 04:55:00,
2013-02-26 16:00:00,79.0,69.6,29.74,NE,45,4.0,4.0,73,0.00,,---,0.00,VWS V14.01,2013-02-26 05:00:00,
2013-02-26 16:05:00,79.0,69.6,29.74,NE,45,2.5,2.7,73,0.00,,---,0.00,VWS V14.01,2013-02-26 05:05:00,
2013-02-26 16:10:00,79.2,69.8,29.74,SE,135,3.4,3.4,73,0.00,,---,0.00,VWS V14.01,2013-02-26 05:10:00,
2013-02-26 16:15:00,79.2,69.4,29.71,NW,315,2.0,2.5,72,0.00,,---,0.00,VWS V14.01,2013-02-26 05:15:00,
2013-02-26 16:20:00,79.0,69.2,29.71,SSW,202,1.6,2.5,72,0.00,,---,0.00,VWS V14.01,2013-02-26 05:20:00,
2013-02-26 16:25:00,78.8,69.0,29.71,NNE,22,4.9,4.9,72,0.00,,---,0.00,VWS V14.01,2013-02-26 05:25:00,
2013-02-26 16:30:00,79.0,69.6,29.71,West,270,5.6,5.6,73,0.00,,---,0.00,VWS V14.01,2013-02-26 05:30:00,
2013-02-26 16:35:00,78.6,69.2,29.71,ENE,68,1.6,3.1,73,0.00,,---,0.00,VWS V14.01,2013-02-26 05:35:00,
2013-02-26 16:40:00,78.1,68.7,29.71,NNE,22,2.9,2.9,73,0.00,,---,0.00,VWS V14.01,2013-02-26 05:40:00,
2013-02-26 16:45:00,78.1,68.7,29.71,NW,315,3.4,3.4,73,0.00,,---,0.00,VWS V14.01,2013-02-26 05:45:00,
2013-02-26 16:50:00,77.9,68.6,29.71,SSE,158,3.6,3.6,73,0.00,,---,0.00,VWS V14.01,2013-02-26 05:50:00,
2013-02-26 16:55:00,77.9,68.6,29.71,ENE,68,4.7,4.7,73,0.00,,---,0.00,VWS V14.01,2013-02-26 05:55:00,
2013-02-26 17:00:00,77.5,68.2,29.71,ESE,112,3.1,4.0,73,0.00,,---,0.00,VWS V14.01,2013-02-26 06:00:00,
2013-02-26 17:05:00,77.7,68.4,29.71,NNW,338,4.9,4.9,73,0.00,,---,0.00,VWS V14.01,2013-02-26 06:05:00,
2013-02-26 17:10:00,77.5,68.2,29.71,West,270,4.5,4.5,73,0.00,,---,0.00,VWS V14.01,2013-02-26 06:10:00,
2013-02-26 17:15:00,77.0,68.5,29.71,SW,225,3.6,3.6,75,0.00,,---,0.00,VWS V14.01,2013-02-26 06:15:00,
2013-02-26 17:20:00,77.0,68.5,29.71,NE,45,3.8,3.8,75,0.00,,---,0.00,VWS V14.01,2013-02-26 06:20:00,
2013-02-26 17:25:00,77.0,68.5,29.71,NE,45,3.1,3.4,75,0.00,,---,0.00,VWS V14.01,2013-02-26 06:25:00,
2013-02-26 17:30:00,76.6,68.1,29.71,SE,135,2.0,3.4,75,0.00,,---,0.00,VWS V14.01,2013-02-26 06:30:00,
2013-02-26 17:35:00,76.6,68.1,29.71,SE,135,4.3,4.3,75,0.00,,---,0.00,VWS V14.01,2013-02-26 06:35:00,
2013-02-26 17:40:00,76.5,67.9,29.71,NE,45,2.7,4.0,75,0.00,,---,0.00,VWS V14.01,2013-02-26 06:40:00,
2013-02-26 17:45:00,76.1,68.0,29.71,NE,45,2.2,2.2,76,0.00,,---,0.00,VWS V14.01,2013-02-26 06:45:00,
2013-02-26 17:50:00,76.1,68.0,29.71,SE,135,4.7,4.7,76,0.00,,---,0.00,VWS V14.01,2013-02-26 06:50:00,
2013-02-26 17:55:00,75.9,67.8,29.71,SSW,202,4.9,4.9,76,0.00,,---,0.00,VWS V14.01,2013-02-26 06:55:00,
2013-02-26 18:00:00,75.7,67.6,29.71,North,0,2.7,2.7,76,0.00,,---,0.00,VWS V14.01,2013-02-26 07:00:00,
2013-02-26 18:05:00,75.6,67.5,29.71,WSW,248,2.7,2.7,76,0.00,,---,0.00,VWS V14.01,2013-02-26 07:05:00,
2013-02-26 18:10:00,75.6,67.5,29.71,NE,45,4.3,4.3,76,0.00,,---,0.00,VWS V14.01,2013-02-26 07:10:00,
2013-02-26 18:16:00,75.6,67.8,29.71,NNW,338,0.0,2.0,77,0.00,,---,0.00,VWS V14.01,2013-02-26 07:16:00,
2013-02-26 18:21:00,75.6,67.8,29.71,NE,45,3.4,3.4,77,0.00,,---,0.00,VWS V14.01,2013-02-26 07:21:00,
2013-02-26 18:26:00,75.4,67.7,29.71,SSE,158,0.9,1.3,77,0.00,,---,0.00,VWS V14.01,2013-02-26 07:26:00,
2013-02-26 18:31:00,75.2,67.5,29.71,North,0,3.4,3.4,77,0.00,,---,0.00,VWS V14.01,2013-02-26 07:31:00,
2013-02-26 18:36:00,75.2,67.5,29.71,North,0,4.5,4.5,77,0.00,,---,0.00,VWS V14.01,2013-02-26 07:36:00,
2013-02-26 18:41:00,75.0,67.3,29.71,South,180,2.0,2.0,77,0.00,,---,0.00,VWS V14.01,2013-02-26 07:41:00,
2013-02-26 18:46:00,75.2,67.5,29.71,North,0,2.2,3.4,77,0.00,,---,0.00,VWS V14.01,2013-02-26 07:46:00,
2013-02-26 18:51:00,75.0,67.3,29.71,North,0,1.3,1.3,77,0.00,,---,0.00,VWS V14.01,2013-02-26 07:51:00,
2013-02-26 19:00:00,74.7,67.3,29.71,North,0,3.8,3.8,78,0.00,,---,0.00,VWS V14.01,2013-02-26 08:00:00,
2013-02-26 19:05:00,74.5,67.2,29.71,WNW,292,1.3,1.3,78,0.00,,---,0.00,VWS V14.01,2013-02-26 08:05:00,
2013-02-26 19:10:00,74.5,67.2,29.71,SE,135,2.0,2.0,78,0.00,,---,0.00,VWS V14.01,2013-02-26 08:10:00,
2013-02-26 19:15:00,74.5,67.2,29.74,ESE,112,3.6,3.6,78,0.00,,---,0.00,VWS V14.01,2013-02-26 08:15:00,
2013-02-26 19:20:00,73.9,67.0,29.74,East,90,2.2,3.6,79,0.00,,---,0.00,VWS V14.01,2013-02-26 08:20:00,
2013-02-26 19:25:00,73.9,67.0,29.74,NNE,22,4.7,4.7,79,0.00,,---,0.00,VWS V14.01,2013-02-26 08:25:00,
2013-02-26 19:30:00,73.9,67.0,29.74,NE,45,2.9,3.1,79,0.00,,---,0.00,VWS V14.01,2013-02-26 08:30:00,
2013-02-26 19:35:00,73.8,66.8,29.74,NNE,22,2.9,2.9,79,0.00,,---,0.00,VWS V14.01,2013-02-26 08:35:00,
2013-02-26 19:40:00,73.8,66.8,29.74,East,90,0.9,2.7,79,0.00,,---,0.00,VWS V14.01,2013-02-26 08:40:00,
2013-02-26 19:45:00,73.6,67.0,29.74,SSE,158,0.9,2.0,80,0.00,,---,0.00,VWS V14.01,2013-02-26 08:45:00,
2013-02-26 19:50:00,73.6,67.0,29.74,SE,135,0.0,3.1,80,0.00,,---,0.00,VWS V14.01,2013-02-26 08:50:00,
2013-02-26 19:55:00,73.4,66.9,29.74,SE,135,2.2,2.2,80,0.00,,---,0.00,VWS V14.01,2013-02-26 08:55:00,
2013-02-26 20:00:00,73.4,66.9,29.74,East,90,2.2,2.2,80,0.00,,---,0.00,VWS V14.01,2013-02-26 09:00:00,
2013-02-26 20:05:00,73.4,66.9,29.74,East,90,2.7,2.7,80,0.00,,---,0.00,VWS V14.01,2013-02-26 09:05:00,
2013-02-26 20:10:00,73.4,66.9,29.74,NNE,22,1.1,3.1,80,0.00,,---,0.00,VWS V14.01,2013-02-26 09:10:00,
2013-02-26 20:15:00,73.2,67.1,29.74,SSE,158,4.0,4.0,81,0.00,,---,0.00,VWS V14.01,2013-02-26 09:15:00,
2013-02-26 20:20:00,73.2,67.1,29.74,NE,45,4.7,4.7,81,0.00,,---,0.00,VWS V14.01,2013-02-26 09:20:00,
2013-02-26 20:25:00,73.2,67.1,29.74,SSW,202,3.1,3.1,81,0.00,,---,0.00,VWS V14.01,2013-02-26 09:25:00,
2013-02-26 20:30:00,73.2,67.1,29.74,NW,315,0.9,0.9,81,0.00,,---,0.00,VWS V14.01,2013-02-26 09:30:00,
2013-02-26 20:35:00,73.2,67.1,29.74,North,0,1.3,1.3,81,0.00,,---,0.00,VWS V14.01,2013-02-26 09:35:00,
2013-02-26 20:40:00,73.2,66.7,29.74,WSW,248,2.2,2.2,80,0.00,,---,0.00,VWS V14.01,2013-02-26 09:40:00,
2013-02-26 20:45:00,73.2,66.7,29.76,WSW,248,4.3,4.7,80,0.00,,---,0.00,VWS V14.01,2013-02-26 09:45:00,
2013-02-26 20:50:00,73.0,66.5,29.76,SSW,202,2.7,2.7,80,0.00,,---,0.00,VWS V14.01,2013-02-26 09:50:00,
2013-02-26 20:55:00,73.0,66.5,29.76,NW,315,3.8,3.8,80,0.00,,---,0.00,VWS V14.01,2013-02-26 09:55:00,
2013-02-26 21:00:00,73.0,66.5,29.76,NW,315,1.6,1.6,80,0.00,,---,0.00,VWS V14.01,2013-02-26 10:00:00,
2013-02-26 21:05:00,73.0,66.2,29.76,NE,45,6.3,6.3,79,0.00,,---,0.00,VWS V14.01,2013-02-26 10:05:00,
2013-02-26 21:10:00,73.0,66.2,29.76,North,0,4.9,4.9,79,0.00,,---,0.00,VWS V14.01,2013-02-26 10:10:00,
2013-02-26 21:15:00,72.9,66.0,29.76,SSE,158,2.0,2.0,79,0.00,,---,0.00,VWS V14.01,2013-02-26 10:15:00,
2013-02-26 21:20:00,72.9,66.0,29.76,WSW,248,2.2,2.7,79,0.00,,---,0.00,VWS V14.01,2013-02-26 10:20:00,
2013-02-26 21:25:00,72.9,65.6,29.76,WNW,292,0.9,0.9,78,0.00,,---,0.00,VWS V14.01,2013-02-26 10:25:00,
2013-02-26 21:30:00,72.9,65.6,29.76,SE,135,3.8,3.8,78,0.00,,---,0.00,VWS V14.01,2013-02-26 10:30:00,
2013-02-26 21:35:00,72.9,65.6,29.76,NW,315,4.3,4.3,78,0.00,,---,0.00,VWS V14.01,2013-02-26 10:35:00,
2013-02-26 21:40:00,72.9,65.6,29.76,East,90,3.1,3.1,78,0.00,,---,0.00,VWS V14.01,2013-02-26 10:40:00,
2013-02-26 21:45:00,72.7,65.1,29.76,NNW,338,2.9,2.9,77,0.00,,---,0.00,VWS V14.01,2013-02-26 10:45:00,
2013-02-26 21:50:00,72.7,65.1,29.76,NW,315,2.2,2.2,77,0.00,,---,0.00,VWS V14.01,2013-02-26 10:50:00,
2013-02-26 21:55:00,72.5,64.9,29.76,NNW,338,1.6,1.6,77,0.00,,---,0.00,VWS V14.01,2013-02-26 10:55:00,
2013-02-26 22:00:00,72.5,64.9,29.79,NW,315,1.3,1.6,77,0.00,,---,0.00,VWS V14.01,2013-02-26 11:00:00,
2013-02-26 22:05:00,72.3,64.7,29.79,North,0,3.6,3.6,77,0.00,,---,0.00,VWS V14.01,2013-02-26 11:05:00,
2013-02-26 22:10:00,72.3,64.7,29.79,West,270,3.6,3.6,77,0.00,,---,0.00,VWS V14.01,2013-02-26 11:10:00,
2013-02-26 22:15:00,72.1,64.5,29.76,West,270,0.9,0.9,77,0.00,,---,0.00,VWS V14.01,2013-02-26 11:15:00,
2013-02-26 22:20:00,72.1,64.9,29.76,West,270,0.0,0.0,78,0.00,,---,0.00,VWS V14.01,2013-02-26 11:20:00,
2013-02-26 22:25:00,72.1,64.9,29.76,North,0,2.5,2.5,78,0.00,,---,0.00,VWS V14.01,2013-02-26 11:25:00,
2013-02-26 22:30:00,72.1,64.9,29.76,NE,45,0.9,0.9,78,0.00,,---,0.00,VWS V14.01,2013-02-26 11:30:00,
2013-02-26 22:35:00,72.1,64.9,29.76,SSW,202,2.7,2.7,78,0.00,,---,0.00,VWS V14.01,2013-02-26 11:35:00,
2013-02-26 22:40:00,72.1,64.9,29.76,SW,225,1.1,1.3,78,0.00,,---,0.00,VWS V14.01,2013-02-26 11:40:00,
2013-02-26 22:45:00,72.1,64.9,29.76,West,270,2.5,2.5,78,0.00,,---,0.00,VWS V14.01,2013-02-26 11:45:00,
2013-02-26 22:50:00,72.1,64.9,29.76,NW,315,0.0,2.0,78,0.00,,---,0.00,VWS V14.01,2013-02-26 11:50:00,
2013-02-26 22:55:00,72.1,64.9,29.76,North,0,2.0,2.9,78,0.00,,---,0.00,VWS V14.01,2013-02-26 11:55:00,
2013-02-26 23:00:00,72.0,64.7,29.76,NW,315,2.9,2.9,78,0.00,,---,0.00,VWS V14.01,2013-02-26 12:00:00,
2013-02-26 23:05:00,72.0,64.7,29.76,East,90,2.5,4.0,78,0.00,,---,0.00,VWS V14.01,2013-02-26 12:05:00,
2013-02-26 23:10:00,72.0,64.7,29.76,East,90,1.1,1.1,78,0.00,,---,0.00,VWS V14.01,2013-02-26 12:10:00,
2013-02-26 23:15:00,72.0,64.7,29.76,SE,135,1.3,2.5,78,0.00,,---,0.00,VWS V14.01,2013-02-26 12:15:00,
2013-02-26 23:20:00,72.0,64.7,29.76,North,0,1.3,1.3,78,0.00,,---,0.00,VWS V14.01,2013-02-26 12:20:00,
2013-02-26 23:25:00,72.0,64.7,29.76,ENE,68,4.3,4.3,78,0.00,,---,0.00,VWS V14.01,2013-02-26 12:25:00,
2013-02-26 23:30:00,72.0,64.7,29.76,North,0,3.4,3.4,78,0.00,,---,0.00,VWS V14.01,2013-02-26 12:30:00,
2013-02-26 23:35:00,72.0,64.7,29.76,NNW,338,1.1,1.1,78,0.00,,---,0.00,VWS V14.01,2013-02-26 12:35:00,
2013-02-26 23:40:00,72.0,64.7,29.76,East,90,4.7,4.7,78,0.00,,---,0.00,VWS V14.01,2013-02-26 12:40:00,
2013-02-26 23:45:00,72.0,64.7,29.76,East,90,3.8,3.8,78,0.00,,---,0.00,VWS V14.01,2013-02-26 12:45:00,
2013-02-26 23:50:00,72.0,64.7,29.76,WNW,292,0.0,0.0,78,0.00,,---,0.00,VWS V14.01,2013-02-26 12:50:00,
2013-02-26 23:55:00,72.0,64.7,29.76,North,0,5.8,5.8,78,0.00,,---,0.00,VWS V14.01,2013-02-26 12:55:00,